sensor_id;sensor_type;location;lat;lon;timestamp;temperature;humidity
21895;DHT22;11112;51.270;7.224;2023-08-07T00:02:10;15.90;99.90
21895;DHT22;11112;51.270;7.224;2023-08-07T00:04:37;15.90;99.90
21895;DHT22;11112;51.270;7.224;2023-08-07T00:07:05;15.90;99.90
21895;DHT22;11112;51.270;7.224;2023-08-07T00:09:33;15.80;99.90
21895;DHT22;11112;51.270;7.224;2023-08-07T00:12:00;15.80;99.90
21895;DHT22;11112;51.270;7.224;2023-08-07T00:14:28;15.90;99.90
21895;DHT22;11112;51.270;7.224;2023-08-07T00:16:55;15.80;99.90
21895;DHT22;11112;51.270;7.224;2023-08-07T00:19:23;15.90;99.90
21895;DHT22;11112;51.270;7.224;2023-08-07T00:21:50;15.90;99.90
21895;DHT22;11112;51.270;7.224;2023-08-07T00:24:17;15.80;99.90
21895;DHT22;11112;51.270;7.224;2023-08-07T00:26:45;15.80;99.90
21895;DHT22;11112;51.270;7.224;2023-08-07T00:29:12;15.80;99.90
21895;DHT22;11112;51.270;7.224;2023-08-07T00:31:39;15.80;99.90
21895;DHT22;11112;51.270;7.224;2023-08-07T00:34:06;15.80;99.90
21895;DHT22;11112;51.270;7.224;2023-08-07T00:36:35;15.80;99.90
21895;DHT22;11112;51.270;7.224;2023-08-07T00:39:02;15.80;99.90
21895;DHT22;11112;51.270;7.224;2023-08-07T00:41:30;15.80;99.90
21895;DHT22;11112;51.270;7.224;2023-08-07T00:43:58;15.80;99.90
21895;DHT22;11112;51.270;7.224;2023-08-07T00:46:26;15.80;99.90
21895;DHT22;11112;51.270;7.224;2023-08-07T00:48:53;15.80;99.90
21895;DHT22;11112;51.270;7.224;2023-08-07T00:51:20;15.70;99.90
21895;DHT22;11112;51.270;7.224;2023-08-07T00:53:48;15.70;99.90
21895;DHT22;11112;51.270;7.224;2023-08-07T00:56:16;15.80;99.90
21895;DHT22;11112;51.270;7.224;2023-08-07T00:58:44;15.80;99.90
21895;DHT22;11112;51.270;7.224;2023-08-07T01:01:12;15.80;99.90
21895;DHT22;11112;51.270;7.224;2023-08-07T01:03:39;15.80;99.90
21895;DHT22;11112;51.270;7.224;2023-08-07T01:06:07;15.80;99.90
21895;DHT22;11112;51.270;7.224;2023-08-07T01:08:34;15.80;99.90
21895;DHT22;11112;51.270;7.224;2023-08-07T01:11:11;15.70;99.90
21895;DHT22;11112;51.270;7.224;2023-08-07T01:13:51;15.70;99.90
21895;DHT22;11112;51.270;7.224;2023-08-07T01:16:29;15.80;99.90
21895;DHT22;11112;51.270;7.224;2023-08-07T01:19:01;15.80;99.90
21895;DHT22;11112;51.270;7.224;2023-08-07T01:21:32;15.70;99.90
21895;DHT22;11112;51.270;7.224;2023-08-07T01:24:01;15.70;99.90
21895;DHT22;11112;51.270;7.224;2023-08-07T01:26:28;15.80;99.90
21895;DHT22;11112;51.270;7.224;2023-08-07T01:29:02;15.70;99.90
21895;DHT22;11112;51.270;7.224;2023-08-07T01:31:33;15.70;99.90
21895;DHT22;11112;51.270;7.224;2023-08-07T01:34:05;15.70;99.90
21895;DHT22;11112;51.270;7.224;2023-08-07T01:36:34;15.70;99.90
21895;DHT22;11112;51.270;7.224;2023-08-07T01:39:04;15.70;99.90
21895;DHT22;11112;51.270;7.224;2023-08-07T01:41:32;15.70;99.90
21895;DHT22;11112;51.270;7.224;2023-08-07T01:44:00;15.70;99.90
21895;DHT22;11112;51.270;7.224;2023-08-07T01:46:27;15.70;99.90
21895;DHT22;11112;51.270;7.224;2023-08-07T01:48:54;15.60;99.90
21895;DHT22;11112;51.270;7.224;2023-08-07T01:51:21;15.70;99.90
21895;DHT22;11112;51.270;7.224;2023-08-07T01:53:48;15.70;99.90
21895;DHT22;11112;51.270;7.224;2023-08-07T01:56:17;15.60;99.90
21895;DHT22;11112;51.270;7.224;2023-08-07T01:58:44;15.70;99.90
21895;DHT22;11112;51.270;7.224;2023-08-07T02:01:11;15.70;99.90
21895;DHT22;11112;51.270;7.224;2023-08-07T02:03:38;15.60;99.90
21895;DHT22;11112;51.270;7.224;2023-08-07T02:06:05;15.60;99.90
21895;DHT22;11112;51.270;7.224;2023-08-07T02:08:32;15.60;99.90
21895;DHT22;11112;51.270;7.224;2023-08-07T02:10:59;15.60;99.90
21895;DHT22;11112;51.270;7.224;2023-08-07T02:13:28;15.70;99.90
21895;DHT22;11112;51.270;7.224;2023-08-07T02:15:55;15.60;99.90
21895;DHT22;11112;51.270;7.224;2023-08-07T02:18:22;15.60;99.90
21895;DHT22;11112;51.270;7.224;2023-08-07T02:20:49;15.70;99.90
21895;DHT22;11112;51.270;7.224;2023-08-07T02:23:16;15.60;99.90
21895;DHT22;11112;51.270;7.224;2023-08-07T02:25:43;15.60;99.90
21895;DHT22;11112;51.270;7.224;2023-08-07T02:28:11;15.60;99.90
21895;DHT22;11112;51.270;7.224;2023-08-07T02:30:40;15.60;99.90
21895;DHT22;11112;51.270;7.224;2023-08-07T02:33:07;15.60;99.90
21895;DHT22;11112;51.270;7.224;2023-08-07T02:35:34;15.60;99.90
21895;DHT22;11112;51.270;7.224;2023-08-07T02:38:01;15.60;99.90
21895;DHT22;11112;51.270;7.224;2023-08-07T02:40:28;15.60;99.90
21895;DHT22;11112;51.270;7.224;2023-08-07T02:42:56;15.60;99.90
21895;DHT22;11112;51.270;7.224;2023-08-07T02:45:23;15.60;99.90
21895;DHT22;11112;51.270;7.224;2023-08-07T02:47:51;15.60;99.90
21895;DHT22;11112;51.270;7.224;2023-08-07T02:50:18;15.60;99.90
21895;DHT22;11112;51.270;7.224;2023-08-07T02:52:45;15.60;99.90
21895;DHT22;11112;51.270;7.224;2023-08-07T02:55:13;15.60;99.90
21895;DHT22;11112;51.270;7.224;2023-08-07T02:57:40;15.60;99.90
21895;DHT22;11112;51.270;7.224;2023-08-07T03:00:08;15.60;99.90
21895;DHT22;11112;51.270;7.224;2023-08-07T03:02:36;15.60;99.90
21895;DHT22;11112;51.270;7.224;2023-08-07T03:05:05;15.60;99.90
21895;DHT22;11112;51.270;7.224;2023-08-07T03:07:33;15.50;99.90
21895;DHT22;11112;51.270;7.224;2023-08-07T03:10:00;15.50;99.90
21895;DHT22;11112;51.270;7.224;2023-08-07T03:12:27;15.50;99.90
21895;DHT22;11112;51.270;7.224;2023-08-07T03:14:54;15.50;99.90
21895;DHT22;11112;51.270;7.224;2023-08-07T03:17:21;15.60;99.90
21895;DHT22;11112;51.270;7.224;2023-08-07T03:19:48;15.60;99.90
21895;DHT22;11112;51.270;7.224;2023-08-07T03:22:17;15.50;99.90
21895;DHT22;11112;51.270;7.224;2023-08-07T03:24:46;15.50;99.90
21895;DHT22;11112;51.270;7.224;2023-08-07T03:27:13;15.50;99.90
21895;DHT22;11112;51.270;7.224;2023-08-07T03:29:40;15.50;99.90
21895;DHT22;11112;51.270;7.224;2023-08-07T03:32:08;15.50;99.90
21895;DHT22;11112;51.270;7.224;2023-08-07T03:34:36;15.60;99.90
21895;DHT22;11112;51.270;7.224;2023-08-07T03:37:03;15.50;99.90
21895;DHT22;11112;51.270;7.224;2023-08-07T03:39:32;15.50;99.90
21895;DHT22;11112;51.270;7.224;2023-08-07T03:41:59;15.50;99.90
21895;DHT22;11112;51.270;7.224;2023-08-07T03:44:26;15.60;99.90
21895;DHT22;11112;51.270;7.224;2023-08-07T03:46:53;15.50;99.90
21895;DHT22;11112;51.270;7.224;2023-08-07T03:49:22;15.50;99.90
21895;DHT22;11112;51.270;7.224;2023-08-07T03:51:49;15.50;99.90
21895;DHT22;11112;51.270;7.224;2023-08-07T03:54:16;15.50;99.90
21895;DHT22;11112;51.270;7.224;2023-08-07T03:56:45;15.50;99.90
21895;DHT22;11112;51.270;7.224;2023-08-07T03:59:12;15.50;99.90
21895;DHT22;11112;51.270;7.224;2023-08-07T04:01:39;15.50;99.90
21895;DHT22;11112;51.270;7.224;2023-08-07T04:04:06;15.50;99.90
21895;DHT22;11112;51.270;7.224;2023-08-07T04:06:33;15.50;99.90
21895;DHT22;11112;51.270;7.224;2023-08-07T04:09:01;15.50;99.90
21895;DHT22;11112;51.270;7.224;2023-08-07T04:11:29;15.50;99.90
21895;DHT22;11112;51.270;7.224;2023-08-07T04:13:57;15.50;99.90
21895;DHT22;11112;51.270;7.224;2023-08-07T04:16:24;15.50;99.90
21895;DHT22;11112;51.270;7.224;2023-08-07T04:18:51;15.50;99.90
21895;DHT22;11112;51.270;7.224;2023-08-07T04:21:18;15.40;99.90
21895;DHT22;11112;51.270;7.224;2023-08-07T04:23:45;15.50;99.90
21895;DHT22;11112;51.270;7.224;2023-08-07T04:26:12;15.50;99.90
21895;DHT22;11112;51.270;7.224;2023-08-07T04:28:40;15.50;99.90
21895;DHT22;11112;51.270;7.224;2023-08-07T04:31:08;15.50;99.90
21895;DHT22;11112;51.270;7.224;2023-08-07T04:33:35;15.50;99.90
21895;DHT22;11112;51.270;7.224;2023-08-07T04:36:03;15.50;99.90
21895;DHT22;11112;51.270;7.224;2023-08-07T04:38:30;15.50;99.90
21895;DHT22;11112;51.270;7.224;2023-08-07T04:40:57;15.50;99.90
21895;DHT22;11112;51.270;7.224;2023-08-07T04:43:24;15.50;99.90
21895;DHT22;11112;51.270;7.224;2023-08-07T04:45:53;15.40;99.90
21895;DHT22;11112;51.270;7.224;2023-08-07T04:48:22;15.50;99.90
21895;DHT22;11112;51.270;7.224;2023-08-07T04:50:50;15.40;99.90
21895;DHT22;11112;51.270;7.224;2023-08-07T04:53:17;15.50;99.90
21895;DHT22;11112;51.270;7.224;2023-08-07T04:55:45;15.40;99.90
21895;DHT22;11112;51.270;7.224;2023-08-07T04:58:12;15.40;99.90
21895;DHT22;11112;51.270;7.224;2023-08-07T05:00:39;15.40;99.90
21895;DHT22;11112;51.270;7.224;2023-08-07T05:03:07;15.40;99.90
21895;DHT22;11112;51.270;7.224;2023-08-07T05:05:35;15.40;99.90
21895;DHT22;11112;51.270;7.224;2023-08-07T05:08:02;15.40;99.90
21895;DHT22;11112;51.270;7.224;2023-08-07T05:10:30;15.40;99.90
21895;DHT22;11112;51.270;7.224;2023-08-07T05:12:57;15.50;99.90
21895;DHT22;11112;51.270;7.224;2023-08-07T05:15:25;15.40;99.90
21895;DHT22;11112;51.270;7.224;2023-08-07T05:17:54;15.40;99.90
21895;DHT22;11112;51.270;7.224;2023-08-07T05:20:21;15.40;99.90
21895;DHT22;11112;51.270;7.224;2023-08-07T05:22:49;15.50;99.90
21895;DHT22;11112;51.270;7.224;2023-08-07T05:25:17;15.50;99.90
21895;DHT22;11112;51.270;7.224;2023-08-07T05:27:44;15.40;99.90
21895;DHT22;11112;51.270;7.224;2023-08-07T05:30:12;15.40;99.90
21895;DHT22;11112;51.270;7.224;2023-08-07T05:32:40;15.40;99.90
21895;DHT22;11112;51.270;7.224;2023-08-07T05:35:08;15.40;99.90
21895;DHT22;11112;51.270;7.224;2023-08-07T05:37:35;15.40;99.90
21895;DHT22;11112;51.270;7.224;2023-08-07T05:40:05;15.40;99.90
21895;DHT22;11112;51.270;7.224;2023-08-07T05:42:33;15.40;99.90
21895;DHT22;11112;51.270;7.224;2023-08-07T05:45:01;15.40;99.90
21895;DHT22;11112;51.270;7.224;2023-08-07T05:47:28;15.40;99.90
21895;DHT22;11112;51.270;7.224;2023-08-07T05:49:55;15.40;99.90
21895;DHT22;11112;51.270;7.224;2023-08-07T05:52:22;15.40;99.90
21895;DHT22;11112;51.270;7.224;2023-08-07T05:54:50;15.40;99.90
21895;DHT22;11112;51.270;7.224;2023-08-07T05:57:19;15.40;99.90
21895;DHT22;11112;51.270;7.224;2023-08-07T05:59:46;15.40;99.90
21895;DHT22;11112;51.270;7.224;2023-08-07T06:02:13;15.40;99.90
21895;DHT22;11112;51.270;7.224;2023-08-07T06:04:40;15.40;99.90
21895;DHT22;11112;51.270;7.224;2023-08-07T06:07:07;15.40;99.90
21895;DHT22;11112;51.270;7.224;2023-08-07T06:09:35;15.40;99.90
21895;DHT22;11112;51.270;7.224;2023-08-07T06:12:03;15.40;99.90
21895;DHT22;11112;51.270;7.224;2023-08-07T06:14:31;15.40;99.90
21895;DHT22;11112;51.270;7.224;2023-08-07T06:16:59;15.40;99.90
21895;DHT22;11112;51.270;7.224;2023-08-07T06:19:27;15.40;99.90
21895;DHT22;11112;51.270;7.224;2023-08-07T06:21:54;15.40;99.90
21895;DHT22;11112;51.270;7.224;2023-08-07T06:24:21;15.50;99.90
21895;DHT22;11112;51.270;7.224;2023-08-07T06:26:50;15.40;99.90
21895;DHT22;11112;51.270;7.224;2023-08-07T06:29:17;15.50;99.90
21895;DHT22;11112;51.270;7.224;2023-08-07T06:31:45;15.50;99.90
21895;DHT22;11112;51.270;7.224;2023-08-07T06:34:12;15.50;99.90
21895;DHT22;11112;51.270;7.224;2023-08-07T06:36:39;15.40;99.90
21895;DHT22;11112;51.270;7.224;2023-08-07T06:39:06;15.40;99.90
21895;DHT22;11112;51.270;7.224;2023-08-07T06:41:34;15.40;99.90
21895;DHT22;11112;51.270;7.224;2023-08-07T06:44:01;15.40;99.90
21895;DHT22;11112;51.270;7.224;2023-08-07T06:46:29;15.40;99.90
21895;DHT22;11112;51.270;7.224;2023-08-07T06:48:58;15.40;99.90
21895;DHT22;11112;51.270;7.224;2023-08-07T06:51:25;15.30;99.90
21895;DHT22;11112;51.270;7.224;2023-08-07T06:53:52;15.40;99.90
21895;DHT22;11112;51.270;7.224;2023-08-07T06:56:19;15.40;99.90
21895;DHT22;11112;51.270;7.224;2023-08-07T06:58:46;15.40;99.90
21895;DHT22;11112;51.270;7.224;2023-08-07T07:01:13;15.40;99.90
21895;DHT22;11112;51.270;7.224;2023-08-07T07:03:40;15.40;99.90
21895;DHT22;11112;51.270;7.224;2023-08-07T07:06:08;15.40;99.90
21895;DHT22;11112;51.270;7.224;2023-08-07T07:08:35;15.40;99.90
21895;DHT22;11112;51.270;7.224;2023-08-07T07:11:02;15.30;99.90
21895;DHT22;11112;51.270;7.224;2023-08-07T07:13:30;15.30;99.90
21895;DHT22;11112;51.270;7.224;2023-08-07T07:15:57;15.30;99.90
21895;DHT22;11112;51.270;7.224;2023-08-07T07:18:24;15.40;99.90
21895;DHT22;11112;51.270;7.224;2023-08-07T07:20:56;15.40;99.90
21895;DHT22;11112;51.270;7.224;2023-08-07T07:23:27;15.30;99.90
21895;DHT22;11112;51.270;7.224;2023-08-07T07:25:54;15.40;99.90
21895;DHT22;11112;51.270;7.224;2023-08-07T07:28:21;15.40;99.90
21895;DHT22;11112;51.270;7.224;2023-08-07T07:30:49;15.30;99.90
21895;DHT22;11112;51.270;7.224;2023-08-07T07:33:16;15.40;99.90
21895;DHT22;11112;51.270;7.224;2023-08-07T07:35:43;15.40;99.90
21895;DHT22;11112;51.270;7.224;2023-08-07T07:38:10;15.40;99.90
21895;DHT22;11112;51.270;7.224;2023-08-07T07:40:39;15.40;99.90
21895;DHT22;11112;51.270;7.224;2023-08-07T07:43:06;15.40;99.90
21895;DHT22;11112;51.270;7.224;2023-08-07T07:45:33;15.40;99.90
21895;DHT22;11112;51.270;7.224;2023-08-07T07:48:01;15.40;99.90
21895;DHT22;11112;51.270;7.224;2023-08-07T07:50:28;15.40;99.90
21895;DHT22;11112;51.270;7.224;2023-08-07T07:52:55;15.50;99.90
21895;DHT22;11112;51.270;7.224;2023-08-07T07:55:22;15.50;99.90
21895;DHT22;11112;51.270;7.224;2023-08-07T07:57:53;15.50;99.90
21895;DHT22;11112;51.270;7.224;2023-08-07T08:00:21;15.50;99.90
21895;DHT22;11112;51.270;7.224;2023-08-07T08:02:51;15.50;99.90
21895;DHT22;11112;51.270;7.224;2023-08-07T08:05:18;15.50;99.90
21895;DHT22;11112;51.270;7.224;2023-08-07T08:07:46;15.50;99.90
21895;DHT22;11112;51.270;7.224;2023-08-07T08:10:13;15.50;99.90
21895;DHT22;11112;51.270;7.224;2023-08-07T08:12:40;15.40;99.90
21895;DHT22;11112;51.270;7.224;2023-08-07T08:15:09;15.40;99.90
21895;DHT22;11112;51.270;7.224;2023-08-07T08:17:36;15.50;99.90
21895;DHT22;11112;51.270;7.224;2023-08-07T08:20:05;15.50;99.90
21895;DHT22;11112;51.270;7.224;2023-08-07T08:22:33;15.50;99.90
21895;DHT22;11112;51.270;7.224;2023-08-07T08:25:00;15.50;99.90
21895;DHT22;11112;51.270;7.224;2023-08-07T08:27:30;15.40;99.90
21895;DHT22;11112;51.270;7.224;2023-08-07T08:29:57;15.40;99.90
21895;DHT22;11112;51.270;7.224;2023-08-07T08:32:25;15.40;99.90
21895;DHT22;11112;51.270;7.224;2023-08-07T08:34:52;15.40;99.90
21895;DHT22;11112;51.270;7.224;2023-08-07T08:37:19;15.50;99.90
21895;DHT22;11112;51.270;7.224;2023-08-07T08:39:46;15.50;99.90
21895;DHT22;11112;51.270;7.224;2023-08-07T08:42:15;15.50;99.90
21895;DHT22;11112;51.270;7.224;2023-08-07T08:44:45;15.50;99.90
21895;DHT22;11112;51.270;7.224;2023-08-07T08:47:15;15.40;99.90
21895;DHT22;11112;51.270;7.224;2023-08-07T08:49:46;15.50;99.90
21895;DHT22;11112;51.270;7.224;2023-08-07T08:52:14;15.50;99.90
21895;DHT22;11112;51.270;7.224;2023-08-07T08:54:42;15.50;99.90
21895;DHT22;11112;51.270;7.224;2023-08-07T08:57:11;15.50;99.90
21895;DHT22;11112;51.270;7.224;2023-08-07T08:59:40;15.50;99.90
21895;DHT22;11112;51.270;7.224;2023-08-07T09:02:08;15.60;99.90
21895;DHT22;11112;51.270;7.224;2023-08-07T09:04:36;15.60;99.90
21895;DHT22;11112;51.270;7.224;2023-08-07T09:07:05;15.60;99.90
21895;DHT22;11112;51.270;7.224;2023-08-07T09:09:33;15.60;99.90
21895;DHT22;11112;51.270;7.224;2023-08-07T09:12:01;15.60;99.90
21895;DHT22;11112;51.270;7.224;2023-08-07T09:14:30;15.70;99.90
21895;DHT22;11112;51.270;7.224;2023-08-07T09:17:01;15.70;99.90
21895;DHT22;11112;51.270;7.224;2023-08-07T09:19:28;15.70;99.90
21895;DHT22;11112;51.270;7.224;2023-08-07T09:21:56;15.70;99.90
21895;DHT22;11112;51.270;7.224;2023-08-07T09:24:24;15.70;99.90
21895;DHT22;11112;51.270;7.224;2023-08-07T09:26:52;15.70;99.90
21895;DHT22;11112;51.270;7.224;2023-08-07T09:29:20;15.80;99.90
21895;DHT22;11112;51.270;7.224;2023-08-07T09:31:48;15.80;99.90
21895;DHT22;11112;51.270;7.224;2023-08-07T09:34:20;15.80;99.90
21895;DHT22;11112;51.270;7.224;2023-08-07T09:36:47;15.80;99.90
21895;DHT22;11112;51.270;7.224;2023-08-07T09:39:14;15.80;99.90
21895;DHT22;11112;51.270;7.224;2023-08-07T09:41:42;15.80;99.90
21895;DHT22;11112;51.270;7.224;2023-08-07T09:44:10;15.80;99.90
21895;DHT22;11112;51.270;7.224;2023-08-07T09:46:44;15.90;99.90
21895;DHT22;11112;51.270;7.224;2023-08-07T09:49:11;15.90;99.90
21895;DHT22;11112;51.270;7.224;2023-08-07T09:51:42;15.90;99.90
21895;DHT22;11112;51.270;7.224;2023-08-07T09:54:09;15.90;99.90
21895;DHT22;11112;51.270;7.224;2023-08-07T09:56:38;16.00;99.90
21895;DHT22;11112;51.270;7.224;2023-08-07T09:59:07;16.00;99.90
21895;DHT22;11112;51.270;7.224;2023-08-07T10:01:37;16.00;99.90
21895;DHT22;11112;51.270;7.224;2023-08-07T10:04:05;16.00;99.90
21895;DHT22;11112;51.270;7.224;2023-08-07T10:06:33;15.90;99.90
21895;DHT22;11112;51.270;7.224;2023-08-07T10:09:01;16.00;99.90
21895;DHT22;11112;51.270;7.224;2023-08-07T10:11:29;15.90;99.90
21895;DHT22;11112;51.270;7.224;2023-08-07T10:13:57;15.90;99.90
21895;DHT22;11112;51.270;7.224;2023-08-07T10:16:27;15.90;99.90
21895;DHT22;11112;51.270;7.224;2023-08-07T10:18:55;15.90;99.90
21895;DHT22;11112;51.270;7.224;2023-08-07T10:21:23;15.90;99.90
21895;DHT22;11112;51.270;7.224;2023-08-07T10:23:53;15.90;99.90
21895;DHT22;11112;51.270;7.224;2023-08-07T10:26:21;15.90;99.90
21895;DHT22;11112;51.270;7.224;2023-08-07T10:28:51;15.90;99.90
21895;DHT22;11112;51.270;7.224;2023-08-07T10:31:19;15.90;99.90
21895;DHT22;11112;51.270;7.224;2023-08-07T10:33:48;15.90;99.90
21895;DHT22;11112;51.270;7.224;2023-08-07T10:36:16;15.90;99.90
21895;DHT22;11112;51.270;7.224;2023-08-07T10:38:45;15.90;99.90
21895;DHT22;11112;51.270;7.224;2023-08-07T10:41:15;16.00;99.90
21895;DHT22;11112;51.270;7.224;2023-08-07T10:43:45;16.00;99.90
21895;DHT22;11112;51.270;7.224;2023-08-07T10:46:15;16.10;99.90
21895;DHT22;11112;51.270;7.224;2023-08-07T10:48:43;16.10;99.90
21895;DHT22;11112;51.270;7.224;2023-08-07T10:51:14;16.10;99.90
21895;DHT22;11112;51.270;7.224;2023-08-07T10:53:43;16.10;99.90
21895;DHT22;11112;51.270;7.224;2023-08-07T10:56:16;16.10;99.90
21895;DHT22;11112;51.270;7.224;2023-08-07T10:58:49;16.10;99.90
21895;DHT22;11112;51.270;7.224;2023-08-07T11:01:22;16.20;99.90
21895;DHT22;11112;51.270;7.224;2023-08-07T11:06:22;16.20;99.90
21895;DHT22;11112;51.270;7.224;2023-08-07T11:08:50;16.20;99.90
21895;DHT22;11112;51.270;7.224;2023-08-07T11:11:17;16.30;99.90
21895;DHT22;11112;51.270;7.224;2023-08-07T11:13:45;16.30;99.90
21895;DHT22;11112;51.270;7.224;2023-08-07T11:16:12;16.30;99.90
21895;DHT22;11112;51.270;7.224;2023-08-07T11:18:41;16.30;99.90
21895;DHT22;11112;51.270;7.224;2023-08-07T11:21:09;16.30;99.90
21895;DHT22;11112;51.270;7.224;2023-08-07T11:23:38;16.30;99.90
21895;DHT22;11112;51.270;7.224;2023-08-07T11:26:05;16.30;99.90
21895;DHT22;11112;51.270;7.224;2023-08-07T11:28:33;16.30;99.90
21895;DHT22;11112;51.270;7.224;2023-08-07T11:31:00;16.30;99.90
21895;DHT22;11112;51.270;7.224;2023-08-07T11:33:29;16.30;99.90
21895;DHT22;11112;51.270;7.224;2023-08-07T11:35:56;16.30;99.90
21895;DHT22;11112;51.270;7.224;2023-08-07T11:38:31;16.20;99.90
21895;DHT22;11112;51.270;7.224;2023-08-07T11:41:01;16.30;99.90
21895;DHT22;11112;51.270;7.224;2023-08-07T11:43:29;16.30;99.90
21895;DHT22;11112;51.270;7.224;2023-08-07T11:45:58;16.30;99.90
21895;DHT22;11112;51.270;7.224;2023-08-07T11:48:29;16.30;99.90
21895;DHT22;11112;51.270;7.224;2023-08-07T11:50:58;16.30;99.90
21895;DHT22;11112;51.270;7.224;2023-08-07T11:53:27;16.30;99.90
21895;DHT22;11112;51.270;7.224;2023-08-07T11:55:56;16.40;99.90
21895;DHT22;11112;51.270;7.224;2023-08-07T11:58:26;16.40;99.90
21895;DHT22;11112;51.270;7.224;2023-08-07T12:00:54;16.50;99.90
21895;DHT22;11112;51.270;7.224;2023-08-07T12:03:25;16.50;99.90
21895;DHT22;11112;51.270;7.224;2023-08-07T12:05:54;16.60;99.90
21895;DHT22;11112;51.270;7.224;2023-08-07T12:08:22;16.60;99.90
21895;DHT22;11112;51.270;7.224;2023-08-07T12:10:50;16.60;99.90
21895;DHT22;11112;51.270;7.224;2023-08-07T12:13:20;16.60;99.90
21895;DHT22;11112;51.270;7.224;2023-08-07T12:15:54;16.60;99.90
21895;DHT22;11112;51.270;7.224;2023-08-07T12:18:22;16.60;99.90
21895;DHT22;11112;51.270;7.224;2023-08-07T12:20:50;16.60;99.90
21895;DHT22;11112;51.270;7.224;2023-08-07T12:23:20;16.60;99.90
21895;DHT22;11112;51.270;7.224;2023-08-07T12:25:48;16.60;99.90
21895;DHT22;11112;51.270;7.224;2023-08-07T12:28:15;16.60;99.90
21895;DHT22;11112;51.270;7.224;2023-08-07T12:30:46;16.70;99.90
21895;DHT22;11112;51.270;7.224;2023-08-07T12:33:14;16.70;99.90
21895;DHT22;11112;51.270;7.224;2023-08-07T12:35:41;16.80;99.90
21895;DHT22;11112;51.270;7.224;2023-08-07T12:38:09;16.80;99.90
21895;DHT22;11112;51.270;7.224;2023-08-07T12:40:37;16.80;99.90
21895;DHT22;11112;51.270;7.224;2023-08-07T12:43:04;16.80;99.90
21895;DHT22;11112;51.270;7.224;2023-08-07T12:45:32;16.80;99.90
21895;DHT22;11112;51.270;7.224;2023-08-07T12:48:01;16.80;99.90
21895;DHT22;11112;51.270;7.224;2023-08-07T12:50:29;16.80;99.90
21895;DHT22;11112;51.270;7.224;2023-08-07T12:52:56;16.90;99.90
21895;DHT22;11112;51.270;7.224;2023-08-07T12:55:24;16.90;99.90
21895;DHT22;11112;51.270;7.224;2023-08-07T12:57:52;16.90;99.90
21895;DHT22;11112;51.270;7.224;2023-08-07T13:00:20;16.90;99.90
21895;DHT22;11112;51.270;7.224;2023-08-07T13:02:48;17.00;99.90
21895;DHT22;11112;51.270;7.224;2023-08-07T13:05:19;17.00;99.90
21895;DHT22;11112;51.270;7.224;2023-08-07T13:07:47;17.10;99.90
21895;DHT22;11112;51.270;7.224;2023-08-07T13:10:16;17.10;99.80
21895;DHT22;11112;51.270;7.224;2023-08-07T13:12:44;17.10;99.60
21895;DHT22;11112;51.270;7.224;2023-08-07T13:15:15;17.10;99.90
21895;DHT22;11112;51.270;7.224;2023-08-07T13:17:43;17.20;99.30
21895;DHT22;11112;51.270;7.224;2023-08-07T13:20:12;17.20;98.90
21895;DHT22;11112;51.270;7.224;2023-08-07T13:22:42;17.30;99.20
21895;DHT22;11112;51.270;7.224;2023-08-07T13:25:12;17.30;99.10
21895;DHT22;11112;51.270;7.224;2023-08-07T13:27:39;17.30;98.90
21895;DHT22;11112;51.270;7.224;2023-08-07T13:30:08;17.30;99.40
21895;DHT22;11112;51.270;7.224;2023-08-07T13:32:35;17.40;99.60
21895;DHT22;11112;51.270;7.224;2023-08-07T13:35:03;17.30;99.50
21895;DHT22;11112;51.270;7.224;2023-08-07T13:37:31;17.40;99.30
21895;DHT22;11112;51.270;7.224;2023-08-07T13:40:00;17.40;98.80
21895;DHT22;11112;51.270;7.224;2023-08-07T13:42:30;17.30;98.70
21895;DHT22;11112;51.270;7.224;2023-08-07T13:44:57;17.30;99.10
21895;DHT22;11112;51.270;7.224;2023-08-07T13:47:24;17.40;98.10
21895;DHT22;11112;51.270;7.224;2023-08-07T13:49:52;17.40;98.20
21895;DHT22;11112;51.270;7.224;2023-08-07T13:52:20;17.40;98.00
21895;DHT22;11112;51.270;7.224;2023-08-07T13:54:47;17.40;97.60
21895;DHT22;11112;51.270;7.224;2023-08-07T13:57:16;17.40;97.50
21895;DHT22;11112;51.270;7.224;2023-08-07T13:59:43;17.40;97.10
21895;DHT22;11112;51.270;7.224;2023-08-07T14:02:10;17.50;96.80
21895;DHT22;11112;51.270;7.224;2023-08-07T14:04:37;17.50;96.30
21895;DHT22;11112;51.270;7.224;2023-08-07T14:07:05;17.50;96.90
21895;DHT22;11112;51.270;7.224;2023-08-07T14:09:32;17.60;95.90
21895;DHT22;11112;51.270;7.224;2023-08-07T14:11:59;17.60;95.60
21895;DHT22;11112;51.270;7.224;2023-08-07T14:14:28;17.60;95.70
21895;DHT22;11112;51.270;7.224;2023-08-07T14:16:55;17.60;95.90
21895;DHT22;11112;51.270;7.224;2023-08-07T14:19:23;17.60;95.80
21895;DHT22;11112;51.270;7.224;2023-08-07T14:21:50;17.60;95.70
21895;DHT22;11112;51.270;7.224;2023-08-07T14:24:17;17.70;95.10
21895;DHT22;11112;51.270;7.224;2023-08-07T14:26:44;17.60;95.20
21895;DHT22;11112;51.270;7.224;2023-08-07T14:29:13;17.70;94.90
21895;DHT22;11112;51.270;7.224;2023-08-07T14:31:41;17.70;95.00
21895;DHT22;11112;51.270;7.224;2023-08-07T14:34:08;17.70;95.20
21895;DHT22;11112;51.270;7.224;2023-08-07T14:36:35;17.70;94.20
21895;DHT22;11112;51.270;7.224;2023-08-07T14:39:03;17.70;94.70
21895;DHT22;11112;51.270;7.224;2023-08-07T14:41:30;17.70;94.50
21895;DHT22;11112;51.270;7.224;2023-08-07T14:43:57;17.70;94.80
21895;DHT22;11112;51.270;7.224;2023-08-07T14:46:24;17.80;95.00
21895;DHT22;11112;51.270;7.224;2023-08-07T14:48:52;17.80;93.70
21895;DHT22;11112;51.270;7.224;2023-08-07T14:51:19;17.80;93.40
21895;DHT22;11112;51.270;7.224;2023-08-07T14:53:46;17.80;92.40
21895;DHT22;11112;51.270;7.224;2023-08-07T14:56:13;17.80;91.70
21895;DHT22;11112;51.270;7.224;2023-08-07T14:58:41;17.70;91.40
21895;DHT22;11112;51.270;7.224;2023-08-07T15:01:08;17.80;92.40
21895;DHT22;11112;51.270;7.224;2023-08-07T15:03:35;17.80;92.20
21895;DHT22;11112;51.270;7.224;2023-08-07T15:06:03;17.70;92.20
21895;DHT22;11112;51.270;7.224;2023-08-07T15:08:31;17.80;92.40
21895;DHT22;11112;51.270;7.224;2023-08-07T15:10:58;17.80;92.40
21895;DHT22;11112;51.270;7.224;2023-08-07T15:13:26;17.70;92.10
21895;DHT22;11112;51.270;7.224;2023-08-07T15:15:53;17.70;92.50
21895;DHT22;11112;51.270;7.224;2023-08-07T15:18:20;17.70;92.50
21895;DHT22;11112;51.270;7.224;2023-08-07T15:20:49;17.80;92.10
21895;DHT22;11112;51.270;7.224;2023-08-07T15:23:18;17.80;91.80
21895;DHT22;11112;51.270;7.224;2023-08-07T15:25:45;17.80;92.00
21895;DHT22;11112;51.270;7.224;2023-08-07T15:28:12;17.80;92.40
21895;DHT22;11112;51.270;7.224;2023-08-07T15:30:39;17.80;92.40
21895;DHT22;11112;51.270;7.224;2023-08-07T15:33:06;17.80;92.40
21895;DHT22;11112;51.270;7.224;2023-08-07T15:35:33;17.80;92.10
21895;DHT22;11112;51.270;7.224;2023-08-07T15:38:00;17.80;92.70